Time;durP1;ratioP1;P1;durP2;ratioP2;P2;SDS_P1;SDS_P2;PMS_P1;PMS_P2;Temp;Humidity;BMP_temperature;BMP_pressure;BME280_temperature;BME280_humidity;BME280_pressure;Samples;Min_cycle;Max_cycle;Signal;HPM_P1;HPM_P2
2021/08/07 00:02:24;;;;;;;12.40;5.30;;;16.30;99.90;;;;;;5051675;28;20278;-82
2021/08/07 00:04:51;;;;;;;12.93;5.60;;;16.30;99.90;;;;;;5051471;28;20652;-82
2021/08/07 00:07:18;;;;;;;11.87;4.70;;;16.30;99.90;;;;;;5051920;28;20224;-83
2021/08/07 00:09:45;;;;;;;11.27;5.40;;;16.40;99.90;;;;;;5051672;28;20227;-82
2021/08/07 00:12:12;;;;;;;15.53;6.73;;;16.50;99.90;;;;;;5051384;28;20226;-82
2021/08/07 00:14:39;;;;;;;12.70;5.63;;;16.30;99.90;;;;;;5051277;28;20588;-82
2021/08/07 00:17:07;;;;;;;14.37;6.07;;;16.40;99.90;;;;;;5051561;28;20268;-82
2021/08/07 00:19:34;;;;;;;11.63;5.57;;;16.30;99.90;;;;;;5051736;28;20204;-81
2021/08/07 00:22:01;;;;;;;11.50;6.07;;;16.20;99.90;;;;;;5051770;28;20641;-82
2021/08/07 00:24:28;;;;;;;13.17;6.17;;;16.30;99.90;;;;;;5063788;28;20198;-81
2021/08/07 00:26:55;;;;;;;15.83;5.70;;;16.40;99.90;;;;;;5069108;28;20209;-82
2021/08/07 00:29:22;;;;;;;10.13;5.27;;;16.40;99.90;;;;;;5052480;28;20641;-81
2021/08/07 00:31:49;;;;;;;16.27;5.43;;;16.50;99.90;;;;;;5051836;28;20247;-81
2021/08/07 00:34:18;;;;;;;14.47;5.57;;;16.50;99.90;;;;;;5051570;28;20192;-82
2021/08/07 00:36:44;;;;;;;14.40;5.77;;;16.60;99.90;;;;;;5051235;28;20220;-81
2021/08/07 00:39:11;;;;;;;11.67;4.53;;;16.60;99.90;;;;;;5051211;28;20195;-85
2021/08/07 00:41:38;;;;;;;12.77;4.43;;;16.60;99.90;;;;;;5051266;28;20283;-80
2021/08/07 00:44:06;;;;;;;13.60;4.70;;;16.60;99.90;;;;;;5051342;28;20227;-82
2021/08/07 00:46:33;;;;;;;11.73;4.20;;;16.60;99.90;;;;;;5051179;28;20204;-82
2021/08/07 00:49:00;;;;;;;10.53;4.07;;;16.60;99.90;;;;;;5051097;28;20219;-83
2021/08/07 00:51:28;;;;;;;13.37;3.97;;;16.70;99.90;;;;;;5051097;28;20630;-82
2021/08/07 00:53:56;;;;;;;8.33;3.30;;;16.80;99.90;;;;;;5050860;28;20192;-83
2021/08/07 00:56:23;;;;;;;6.60;3.40;;;16.80;99.90;;;;;;5051098;28;20279;-82
2021/08/07 00:58:50;;;;;;;6.77;3.57;;;16.80;99.90;;;;;;5051110;28;20278;-81
2021/08/07 01:01:17;;;;;;;9.13;3.77;;;16.80;99.90;;;;;;5051305;28;20196;-81
2021/08/07 01:03:47;;;;;;;10.73;3.57;;;16.80;99.90;;;;;;5050417;28;20222;-83
2021/08/07 01:06:24;;;;;;;12.10;3.17;;;16.70;99.90;;;;;;5051341;28;20211;-81
2021/08/07 01:09:09;;;;;;;7.23;3.57;;;16.70;99.90;;;;;;5050218;28;20200;-85
2021/08/07 01:11:57;;;;;;;8.50;3.37;;;16.80;99.90;;;;;;5051355;28;20243;-86
2021/08/07 01:14:33;;;;;;;8.33;3.70;;;16.70;99.90;;;;;;5050854;28;20216;-85
2021/08/07 01:17:01;;;;;;;10.13;3.80;;;16.70;99.90;;;;;;5050882;28;20248;-85
2021/08/07 01:19:34;;;;;;;7.57;3.53;;;16.80;99.90;;;;;;5051019;28;20295;-86
2021/08/07 01:22:03;;;;;;;8.70;3.50;;;16.80;99.90;;;;;;5050873;28;20252;-83
2021/08/07 01:24:37;;;;;;;6.40;3.50;;;16.80;99.90;;;;;;5050754;28;20222;-83
2021/08/07 01:27:24;;;;;;;11.97;3.77;;;16.70;99.90;;;;;;5050642;28;20235;-80
2021/08/07 01:29:52;;;;;;;8.23;3.50;;;16.60;99.90;;;;;;5050548;28;20196;-82
2021/08/07 01:32:23;;;;;;;7.87;3.50;;;16.60;99.90;;;;;;5050240;28;20220;-86
2021/08/07 01:34:50;;;;;;;8.53;3.67;;;16.60;99.90;;;;;;5050578;28;20690;-84
2021/08/07 01:37:19;;;;;;;10.67;3.30;;;16.60;99.90;;;;;;5050403;28;20610;-83
2021/08/07 01:39:47;;;;;;;11.60;3.60;;;16.60;99.90;;;;;;5050657;28;20709;-82
2021/08/07 01:42:16;;;;;;;8.43;3.37;;;16.70;99.90;;;;;;5050592;27;20215;-85
2021/08/07 01:44:43;;;;;;;8.93;3.40;;;16.70;99.90;;;;;;5050283;28;20288;-82
2021/08/07 01:47:16;;;;;;;12.40;3.93;;;16.70;99.90;;;;;;5050525;28;20196;-83
2021/08/07 01:49:48;;;;;;;10.57;3.60;;;16.70;99.90;;;;;;5049985;28;20709;-85
2021/08/07 01:52:19;;;;;;;7.47;3.47;;;16.70;99.90;;;;;;5050269;28;20252;-82
2021/08/07 01:54:50;;;;;;;8.87;3.57;;;16.80;99.90;;;;;;5049905;28;20713;-86
2021/08/07 01:57:23;;;;;;;9.70;3.57;;;16.80;99.90;;;;;;5050127;28;20192;-82
2021/08/07 01:59:51;;;;;;;6.07;3.10;;;16.70;99.90;;;;;;5050262;28;20231;-83
2021/08/07 02:02:19;;;;;;;9.83;3.00;;;16.80;99.90;;;;;;5050197;28;20214;-82
2021/08/07 02:04:46;;;;;;;10.27;3.20;;;16.80;99.90;;;;;;5049972;28;20227;-83
2021/08/07 02:07:15;;;;;;;8.00;3.00;;;16.90;99.90;;;;;;5050241;28;20279;-82
2021/08/07 02:09:44;;;;;;;9.53;3.43;;;16.90;99.90;;;;;;5050312;28;20208;-82
2021/08/07 02:12:15;;;;;;;7.70;2.93;;;17.00;99.90;;;;;;5049822;28;20216;-82
2021/08/07 02:14:45;;;;;;;10.70;3.27;;;16.90;99.90;;;;;;5049889;28;20256;-86
2021/08/07 02:17:12;;;;;;;8.83;3.00;;;16.80;99.90;;;;;;5049788;28;20590;-82
2021/08/07 02:19:40;;;;;;;11.50;3.43;;;16.80;99.90;;;;;;5050062;28;20275;-81
2021/08/07 02:22:08;;;;;;;6.80;3.03;;;16.90;99.90;;;;;;5053402;28;20676;-83
2021/08/07 02:24:35;;;;;;;7.80;3.10;;;16.80;99.90;;;;;;5053381;28;20247;-82
2021/08/07 02:27:02;;;;;;;9.60;2.90;;;16.90;99.90;;;;;;5053112;28;20657;-82
2021/08/07 02:29:31;;;;;;;11.00;2.77;;;16.70;99.90;;;;;;5053029;28;20192;-84
2021/08/07 02:32:01;;;;;;;10.87;3.23;;;16.70;99.90;;;;;;5053274;28;20307;-82
2021/08/07 02:34:29;;;;;;;10.30;3.10;;;16.70;99.90;;;;;;5053129;27;20283;-83
2021/08/07 02:36:56;;;;;;;14.03;3.37;;;16.60;99.90;;;;;;5052927;28;20196;-83
2021/08/07 02:39:26;;;;;;;4.90;3.03;;;16.70;99.90;;;;;;5052913;28;20206;-82
2021/08/07 02:41:54;;;;;;;9.27;3.13;;;16.50;99.90;;;;;;5052813;28;20241;-83
2021/08/07 02:44:22;;;;;;;8.50;2.93;;;16.50;99.90;;;;;;5053290;28;20210;-82
2021/08/07 02:46:49;;;;;;;10.40;3.07;;;16.50;99.90;;;;;;5052927;28;20287;-82
2021/08/07 02:49:18;;;;;;;7.57;3.60;;;16.40;99.90;;;;;;5052892;28;20283;-85
2021/08/07 02:51:48;;;;;;;9.67;3.13;;;16.30;99.90;;;;;;5052671;28;20228;-84
2021/08/07 02:54:16;;;;;;;8.83;3.07;;;16.30;99.90;;;;;;5052697;28;20232;-84
2021/08/07 02:56:43;;;;;;;6.90;3.10;;;16.20;99.90;;;;;;5052930;28;20272;-82
2021/08/07 02:59:10;;;;;;;10.73;3.00;;;16.10;99.90;;;;;;5052754;28;20195;-83
2021/08/07 03:01:37;;;;;;;6.93;2.87;;;16.00;99.90;;;;;;5052696;28;20241;-83
2021/08/07 03:04:05;;;;;;;7.00;3.00;;;15.90;99.90;;;;;;5052705;28;20287;-84
2021/08/07 03:06:33;;;;;;;5.53;2.60;;;15.90;99.90;;;;;;5052577;28;20265;-82
2021/08/07 03:09:00;;;;;;;10.83;3.30;;;15.90;99.90;;;;;;5052453;28;20276;-82
2021/08/07 03:11:27;;;;;;;10.47;3.20;;;15.90;99.90;;;;;;5052538;28;20232;-83
2021/08/07 03:13:54;;;;;;;9.63;3.27;;;15.90;99.90;;;;;;5052410;28;20228;-85
2021/08/07 03:16:20;;;;;;;6.50;3.00;;;15.80;99.90;;;;;;5052577;28;20279;-82
2021/08/07 03:18:47;;;;;;;8.97;2.97;;;15.70;99.90;;;;;;5044195;28;20279;-82
2021/08/07 03:21:14;;;;;;;7.90;3.33;;;15.70;99.90;;;;;;5052365;28;20549;-82
2021/08/07 03:23:43;;;;;;;7.90;3.13;;;15.70;99.90;;;;;;5052527;28;20204;-82
2021/08/07 03:26:10;;;;;;;15.10;3.57;;;15.70;99.90;;;;;;5052156;28;20283;-83
2021/08/07 03:28:37;;;;;;;10.93;3.23;;;15.60;99.90;;;;;;5052275;28;20200;-82
2021/08/07 03:31:04;;;;;;;11.33;3.30;;;15.70;99.90;;;;;;5051868;28;20710;-81
2021/08/07 03:33:31;;;;;;;10.13;3.30;;;15.60;99.90;;;;;;5051662;28;20546;-84
2021/08/07 03:35:58;;;;;;;6.43;3.10;;;15.70;99.90;;;;;;5051956;28;20196;-85
2021/08/07 03:38:25;;;;;;;6.63;3.23;;;15.70;99.90;;;;;;5052320;28;20574;-84
2021/08/07 03:40:53;;;;;;;9.47;3.40;;;15.80;99.90;;;;;;5052257;28;20204;-83
2021/08/07 03:43:20;;;;;;;9.73;3.37;;;15.80;99.90;;;;;;5052254;28;20219;-82
2021/08/07 03:45:47;;;;;;;11.43;3.37;;;15.90;99.90;;;;;;5052043;28;20188;-82
2021/08/07 03:48:14;;;;;;;8.30;3.13;;;15.90;99.90;;;;;;5051980;28;20278;-83
2021/08/07 03:50:41;;;;;;;10.93;3.80;;;15.90;99.90;;;;;;5051532;28;20224;-81
2021/08/07 03:53:08;;;;;;;8.33;3.27;;;15.90;99.90;;;;;;5051488;28;20667;-85
2021/08/07 03:55:35;;;;;;;7.80;3.37;;;15.80;99.90;;;;;;5052146;28;20281;-81
2021/08/07 03:58:04;;;;;;;10.07;3.20;;;15.80;99.90;;;;;;5051942;28;20283;-84
2021/08/07 04:00:34;;;;;;;13.77;3.53;;;15.60;99.90;;;;;;5051741;28;20228;-82
2021/08/07 04:03:01;;;;;;;9.00;3.50;;;15.50;99.90;;;;;;5051965;28;20257;-83
2021/08/07 04:05:29;;;;;;;7.90;3.40;;;15.50;99.90;;;;;;5051913;28;20279;-84
2021/08/07 04:08:01;;;;;;;10.00;2.90;;;15.60;99.90;;;;;;5051687;28;20209;-82
2021/08/07 04:10:28;;;;;;;9.20;3.20;;;15.60;99.90;;;;;;5051954;28;20210;-83
2021/08/07 04:12:55;;;;;;;15.80;4.07;;;15.70;99.90;;;;;;5051602;28;20303;-82
2021/08/07 04:15:24;;;;;;;16.63;3.47;;;15.80;99.90;;;;;;5051520;28;20283;-83
2021/08/07 04:17:51;;;;;;;12.07;3.50;;;15.90;99.90;;;;;;5051586;28;20283;-82
2021/08/07 04:20:19;;;;;;;8.30;3.30;;;15.90;99.90;;;;;;5051490;28;20283;-86
2021/08/07 04:22:46;;;;;;;10.47;3.53;;;16.00;99.90;;;;;;5051631;28;20279;-84
2021/08/07 04:25:13;;;;;;;8.80;2.97;;;16.10;99.90;;;;;;5051531;28;20208;-83
2021/08/07 04:27:40;;;;;;;6.63;3.47;;;16.10;99.90;;;;;;5051388;28;20200;-82
2021/08/07 04:30:09;;;;;;;18.33;4.97;;;16.20;99.90;;;;;;5051093;28;20731;-83
2021/08/07 04:32:38;;;;;;;16.53;4.00;;;16.10;99.90;;;;;;5051055;28;20263;-85
2021/08/07 04:35:07;;;;;;;13.50;3.50;;;16.00;99.90;;;;;;5051493;28;20219;-84
2021/08/07 04:37:48;;;;;;;9.83;3.60;;;16.00;99.90;;;;;;5050986;28;20657;-82
2021/08/07 04:40:16;;;;;;;10.03;3.60;;;16.00;99.90;;;;;;5051311;28;20196;-84
2021/08/07 04:42:43;;;;;;;10.80;3.73;;;16.10;99.90;;;;;;5050818;28;20208;-86
2021/08/07 04:45:11;;;;;;;12.83;3.97;;;16.10;99.90;;;;;;5050732;28;20208;-86
2021/08/07 04:47:51;;;;;;;8.57;3.90;;;16.20;99.90;;;;;;5052078;28;20220;-82
2021/08/07 04:50:18;;;;;;;11.57;3.90;;;16.20;99.90;;;;;;5051410;28;20645;-83
2021/08/07 04:52:45;;;;;;;6.03;3.67;;;16.20;99.90;;;;;;5051312;28;20212;-83
2021/08/07 04:55:12;;;;;;;10.27;3.80;;;16.30;99.90;;;;;;5051452;28;20515;-84
2021/08/07 04:57:39;;;;;;;12.00;3.70;;;16.40;99.90;;;;;;5051703;28;20220;-83
2021/08/07 05:00:07;;;;;;;13.67;4.00;;;16.40;99.90;;;;;;5051470;28;20219;-83
2021/08/07 05:02:34;;;;;;;13.53;3.60;;;16.40;99.90;;;;;;5051259;28;20228;-84
2021/08/07 05:05:03;;;;;;;10.20;3.47;;;16.50;99.90;;;;;;5052347;28;20255;-83
2021/08/07 05:07:31;;;;;;;11.87;3.13;;;16.70;99.90;;;;;;5052192;28;20192;-83
2021/08/07 05:09:58;;;;;;;15.20;3.23;;;16.90;99.90;;;;;;5053677;28;20218;-82
2021/08/07 05:12:27;;;;;;;8.57;3.50;;;16.90;99.90;;;;;;5053828;28;20223;-83
2021/08/07 05:14:55;;;;;;;6.70;3.57;;;16.90;99.90;;;;;;5053329;28;20188;-82
2021/08/07 05:17:22;;;;;;;8.90;3.27;;;16.90;99.90;;;;;;5052266;28;20202;-83
2021/08/07 05:19:49;;;;;;;7.20;2.93;;;17.00;99.90;;;;;;5052847;28;20204;-86
2021/08/07 05:22:17;;;;;;;8.60;3.00;;;17.00;99.90;;;;;;5052373;28;20288;-86
2021/08/07 05:24:45;;;;;;;5.93;3.00;;;17.40;99.90;;;;;;5053401;28;20200;-83
2021/08/07 05:27:12;;;;;;;5.43;3.10;;;17.90;99.90;;;;;;5065600;28;20188;-82
2021/08/07 05:29:39;;;;;;;7.97;2.60;;;18.40;99.90;;;;;;5074472;28;20188;-84
2021/08/07 05:32:06;;;;;;;11.63;2.87;;;18.70;99.90;;;;;;5065034;28;20529;-82
2021/08/07 05:34:33;;;;;;;6.87;2.60;;;19.30;99.90;;;;;;5065340;28;20212;-81
2021/08/07 05:37:00;;;;;;;8.80;2.63;;;20.30;99.90;;;;;;5074359;28;20207;-82
2021/08/07 05:39:29;;;;;;;7.60;2.43;;;21.40;99.90;;;;;;5074457;28;20199;-79
2021/08/07 05:41:56;;;;;;;4.15;2.30;;;22.50;99.90;;;;;;5072905;28;20192;-84
2021/08/07 05:44:23;;;;;;;6.40;2.05;;;23.50;99.90;;;;;;5075071;28;20200;-83
2021/08/07 05:46:50;;;;;;;5.60;2.00;;;24.20;99.90;;;;;;5074557;28;20200;-82
2021/08/07 05:49:16;;;;;;;7.32;1.92;;;24.70;99.90;;;;;;5054380;28;20204;-84
2021/08/07 05:51:43;;;;;;;6.70;2.55;;;25.40;99.90;;;;;;5051619;27;20614;-84
2021/08/07 05:54:11;;;;;;;11.90;2.08;;;25.80;99.90;;;;;;5051386;28;20220;-86
2021/08/07 05:56:39;;;;;;;11.35;2.22;;;26.20;99.90;;;;;;5054496;28;20210;-83
2021/08/07 05:59:06;;;;;;;6.63;2.25;;;26.60;99.90;;;;;;5055180;28;20200;-82
2021/08/07 06:01:33;;;;;;;6.50;2.33;;;26.80;99.90;;;;;;5054436;27;20204;-86
2021/08/07 06:04:00;;;;;;;6.18;2.22;;;26.60;99.90;;;;;;5054246;28;20235;-86
2021/08/07 06:06:27;;;;;;;7.82;2.13;;;26.20;99.90;;;;;;5054639;28;20201;-84
2021/08/07 06:08:54;;;;;;;7.80;2.25;;;25.50;99.90;;;;;;5053608;28;20517;-85
2021/08/07 06:11:21;;;;;;;4.57;2.30;;;24.80;99.90;;;;;;5053192;28;20621;-85
2021/08/07 06:13:49;;;;;;;6.68;2.35;;;23.90;99.90;;;;;;5053515;28;20216;-85
2021/08/07 06:16:16;;;;;;;5.82;2.60;;;23.20;99.90;;;;;;5053344;28;20196;-84
2021/08/07 06:18:43;;;;;;;10.95;2.45;;;22.10;99.90;;;;;;5053232;28;20281;-85
2021/08/07 06:21:10;;;;;;;7.25;3.00;;;21.60;99.90;;;;;;5053566;28;20235;-83
2021/08/07 06:23:37;;;;;;;7.07;2.85;;;21.20;99.90;;;;;;5053563;28;20728;-83
2021/08/07 06:26:04;;;;;;;9.23;3.17;;;20.50;99.90;;;;;;5053365;28;20204;-85
2021/08/07 06:28:33;;;;;;;6.03;2.60;;;19.90;99.90;;;;;;5053185;28;20238;-84
2021/08/07 06:31:01;;;;;;;11.73;4.00;;;19.60;99.90;;;;;;5053003;28;20231;-86
2021/08/07 06:33:28;;;;;;;8.97;2.77;;;19.30;99.90;;;;;;5053134;28;20311;-84
2021/08/07 06:35:55;;;;;;;11.47;2.70;;;18.90;99.90;;;;;;5053290;28;20224;-87
2021/08/07 06:38:22;;;;;;;7.63;2.27;;;18.70;99.90;;;;;;5053370;28;20662;-82
2021/08/07 06:40:49;;;;;;;9.33;2.80;;;18.60;99.90;;;;;;5053051;28;20231;-84
2021/08/07 06:43:16;;;;;;;7.13;2.70;;;18.50;99.90;;;;;;5053212;28;20598;-85
2021/08/07 06:45:43;;;;;;;13.70;3.03;;;18.40;99.90;;;;;;5052834;28;20283;-84
2021/08/07 06:48:12;;;;;;;11.03;3.10;;;18.50;99.90;;;;;;5052955;28;20520;-82
2021/08/07 06:50:39;;;;;;;8.47;3.17;;;18.30;99.90;;;;;;5053118;28;20279;-83
2021/08/07 06:53:06;;;;;;;7.80;2.83;;;18.30;99.90;;;;;;5052852;28;20533;-82
2021/08/07 06:55:33;;;;;;;11.67;2.70;;;18.20;99.90;;;;;;5052808;28;20235;-85
2021/08/07 06:58:00;;;;;;;8.17;3.00;;;18.20;99.90;;;;;;5052928;28;20641;-84
2021/08/07 07:00:27;;;;;;;7.77;2.67;;;18.20;99.90;;;;;;5052917;28;20291;-84
2021/08/07 07:02:54;;;;;;;17.27;2.60;;;18.30;99.90;;;;;;5052762;28;20193;-83
2021/08/07 07:05:23;;;;;;;11.10;3.00;;;18.30;99.90;;;;;;5052473;28;20701;-84
2021/08/07 07:07:49;;;;;;;7.30;2.43;;;18.30;99.90;;;;;;5051804;28;20196;-83
2021/08/07 07:10:16;;;;;;;7.43;2.67;;;18.20;99.90;;;;;;5052405;28;20359;-85
2021/08/07 07:12:43;;;;;;;7.87;2.40;;;18.30;99.90;;;;;;5052606;28;20684;-83
2021/08/07 07:15:11;;;;;;;7.33;2.60;;;18.40;99.90;;;;;;5052660;28;20220;-84
2021/08/07 07:17:38;;;;;;;9.07;2.60;;;18.40;99.90;;;;;;5052320;28;20653;-83
2021/08/07 07:20:06;;;;;;;7.07;2.30;;;18.40;99.90;;;;;;5052668;28;20275;-82
2021/08/07 07:22:35;;;;;;;7.73;2.77;;;18.50;99.90;;;;;;5052639;28;20629;-84
2021/08/07 07:25:02;;;;;;;11.47;3.00;;;18.70;99.90;;;;;;5052425;27;20646;-83
2021/08/07 07:27:29;;;;;;;8.03;2.47;;;18.90;99.90;;;;;;5052253;28;20231;-85
2021/08/07 07:29:56;;;;;;;7.03;2.37;;;19.10;99.90;;;;;;5052570;28;20196;-86
2021/08/07 07:32:23;;;;;;;7.90;2.20;;;19.20;99.90;;;;;;5053056;28;20200;-88
2021/08/07 07:34:50;;;;;;;13.23;2.13;;;19.20;99.90;;;;;;5044281;28;20303;-82
2021/08/07 07:37:17;;;;;;;6.27;2.27;;;19.20;99.90;;;;;;5052254;28;20283;-86
2021/08/07 07:39:45;;;;;;;8.37;2.70;;;19.10;99.90;;;;;;5051832;28;20224;-84
2021/08/07 07:42:12;;;;;;;6.73;2.07;;;19.10;99.90;;;;;;5052466;28;20232;-85
2021/08/07 07:44:39;;;;;;;6.93;2.30;;;19.10;99.90;;;;;;5051685;28;20250;-84
2021/08/07 07:47:07;;;;;;;4.73;1.93;;;19.10;99.90;;;;;;5052290;28;20231;-85
2021/08/07 07:49:33;;;;;;;9.07;2.20;;;19.00;99.90;;;;;;5052324;28;20297;-82
2021/08/07 07:52:00;;;;;;;8.40;2.13;;;19.00;99.90;;;;;;5054241;28;20279;-80
2021/08/07 07:54:27;;;;;;;7.27;1.73;;;19.10;99.90;;;;;;5054649;28;20280;-81
2021/08/07 07:56:56;;;;;;;8.93;1.70;;;19.10;99.90;;;;;;5055014;28;20275;-81
2021/08/07 07:59:24;;;;;;;7.77;1.70;;;19.10;99.90;;;;;;5053668;28;20210;-82
2021/08/07 08:01:51;;;;;;;7.00;2.30;;;19.20;99.90;;;;;;5054588;28;20545;-83
2021/08/07 08:04:18;;;;;;;6.97;2.20;;;19.50;99.90;;;;;;5055057;28;20231;-82
2021/08/07 08:06:45;;;;;;;9.43;2.43;;;20.30;99.90;;;;;;5063852;28;20196;-81
2021/08/07 08:09:11;;;;;;;5.73;2.10;;;21.90;99.90;;;;;;5075269;28;20184;-82
2021/08/07 08:11:39;;;;;;;8.82;2.65;;;23.60;99.90;;;;;;5074931;28;20181;-81
2021/08/07 08:14:07;;;;;;;4.20;1.75;;;25.10;99.90;;;;;;5074286;28;20220;-81
2021/08/07 08:16:34;;;;;;;5.15;1.80;;;25.30;99.90;;;;;;5074098;28;20660;-81
2021/08/07 08:19:01;;;;;;;3.78;1.80;;;26.10;99.90;;;;;;5073086;28;20279;-80
2021/08/07 08:21:28;;;;;;;3.75;1.50;;;27.90;99.90;;;;;;5072410;28;20210;-79
2021/08/07 08:23:55;;;;;;;5.72;1.60;;;29.20;99.90;;;;;;5071570;28;20184;-81
2021/08/07 08:26:22;;;;;;;5.00;1.50;;;30.50;99.90;;;;;;5065308;28;20199;-84
2021/08/07 08:28:49;;;;;;;3.95;1.30;;;31.60;99.90;;;;;;5053626;28;20588;-82
2021/08/07 08:31:17;;;;;;;6.30;1.83;;;32.50;99.90;;;;;;5052516;28;20204;-83
2021/08/07 08:33:44;;;;;;;4.70;1.58;;;32.60;99.90;;;;;;5056233;28;20212;-80
2021/08/07 08:36:12;;;;;;;3.63;1.27;;;32.60;99.90;;;;;;5063582;28;20207;-82
2021/08/07 08:38:39;;;;;;;4.35;1.50;;;32.20;99.90;;;;;;5051960;28;20227;-83
2021/08/07 08:41:06;;;;;;;4.40;1.60;;;31.00;99.90;;;;;;5051438;28;20301;-82
2021/08/07 08:43:33;;;;;;;4.30;1.30;;;29.70;99.90;;;;;;5051236;28;20311;-82
2021/08/07 08:46:00;;;;;;;5.75;1.60;;;29.30;99.90;;;;;;5051171;28;20275;-83
2021/08/07 08:48:30;;;;;;;4.28;1.35;;;28.70;99.90;;;;;;5051105;28;20220;-83
2021/08/07 08:50:57;;;;;;;3.75;1.25;;;27.90;99.90;;;;;;5051025;28;20219;-83
2021/08/07 08:53:24;;;;;;;6.82;1.50;;;26.80;99.90;;;;;;5051187;28;20200;-83
2021/08/07 08:55:51;;;;;;;4.68;1.55;;;26.70;99.90;;;;;;5050683;28;20311;-82
2021/08/07 08:58:18;;;;;;;7.35;1.88;;;26.40;99.90;;;;;;5051108;28;20207;-82
2021/08/07 09:00:46;;;;;;;7.88;1.73;;;26.80;99.90;;;;;;5050857;28;20228;-82
2021/08/07 09:03:13;;;;;;;6.18;1.60;;;26.70;99.90;;;;;;5050737;28;20195;-82
2021/08/07 09:05:41;;;;;;;5.18;1.63;;;27.30;99.90;;;;;;5050941;28;20208;-84
2021/08/07 09:08:08;;;;;;;7.18;2.00;;;26.50;99.90;;;;;;5050951;28;20192;-85
2021/08/07 09:10:36;;;;;;;7.38;1.67;;;26.80;99.90;;;;;;5050889;27;20284;-84
2021/08/07 09:13:06;;;;;;;8.27;1.70;;;26.50;99.90;;;;;;5050826;28;20200;-85
2021/08/07 09:15:35;;;;;;;7.47;1.88;;;26.00;99.90;;;;;;5050456;28;20224;-82
2021/08/07 09:18:21;;;;;;;8.32;1.90;;;26.30;99.90;;;;;;5050690;28;20196;-83
2021/08/07 09:20:51;;;;;;;5.93;1.77;;;27.00;99.90;;;;;;5050743;28;20235;-83
2021/08/07 09:23:31;;;;;;;8.10;1.60;;;28.10;99.90;;;;;;5050663;28;20219;-82
2021/08/07 09:26:15;;;;;;;8.05;1.77;;;29.20;99.90;;;;;;5050643;28;20196;-82
2021/08/07 09:28:44;;;;;;;6.40;1.70;;;29.30;99.90;;;;;;5050805;28;20200;-83
2021/08/07 09:31:11;;;;;;;5.07;1.63;;;28.60;99.90;;;;;;5050363;28;20197;-84
2021/08/07 09:33:39;;;;;;;5.30;1.50;;;27.60;99.90;;;;;;5050364;28;20199;-84
2021/08/07 09:36:07;;;;;;;4.55;1.23;;;26.70;99.90;;;;;;5050569;28;20204;-84
2021/08/07 09:38:42;;;;;;;7.93;1.65;;;26.30;99.90;;;;;;5050031;28;20291;-82
2021/08/07 09:41:09;;;;;;;5.93;1.55;;;27.10;99.90;;;;;;5050784;28;20259;-81
2021/08/07 09:43:42;;;;;;;6.07;1.20;;;28.10;99.90;;;;;;5050088;28;20228;-82
2021/08/07 09:46:11;;;;;;;3.55;1.45;;;28.10;99.90;;;;;;5050352;27;20220;-80
2021/08/07 09:48:41;;;;;;;3.15;1.23;;;28.10;99.90;;;;;;5050684;28;20231;-82
2021/08/07 09:51:21;;;;;;;3.70;1.50;;;27.40;99.90;;;;;;5050259;28;20284;-82
2021/08/07 09:54:02;;;;;;;4.65;1.55;;;26.60;99.90;;;;;;5051039;28;20597;-83
2021/08/07 09:56:42;;;;;;;7.68;1.50;;;25.90;99.90;;;;;;5050320;27;20227;-83
2021/08/07 09:59:10;;;;;;;7.60;1.70;;;25.50;99.90;;;;;;5049982;28;20589;-84
2021/08/07 10:01:37;;;;;;;4.97;1.30;;;25.10;99.90;;;;;;5050045;28;20740;-80
2021/08/07 10:04:06;;;;;;;4.03;1.33;;;24.70;99.90;;;;;;5050596;28;20330;-81
2021/08/07 10:06:36;;;;;;;7.95;1.52;;;24.20;99.90;;;;;;5050654;28;20529;-84
2021/08/07 10:09:04;;;;;;;5.63;1.20;;;24.00;99.90;;;;;;5050380;28;20261;-82
2021/08/07 10:11:32;;;;;;;6.60;1.42;;;24.00;99.90;;;;;;5050295;28;20206;-85
2021/08/07 10:14:00;;;;;;;6.55;1.38;;;24.00;99.90;;;;;;5049538;28;20287;-84
2021/08/07 10:16:28;;;;;;;3.10;1.10;;;23.80;99.90;;;;;;5049550;28;20235;-86
2021/08/07 10:18:55;;;;;;;3.00;1.08;;;23.70;99.90;;;;;;5049812;28;20252;-85
2021/08/07 10:21:23;;;;;;;5.72;1.10;;;23.90;99.90;;;;;;5049934;28;20264;-85
2021/08/07 10:23:53;;;;;;;5.38;1.10;;;23.70;99.90;;;;;;5041817;28;20201;-83
2021/08/07 10:26:21;;;;;;;5.20;1.50;;;23.70;99.90;;;;;;5049851;28;20253;-84
2021/08/07 10:28:53;;;;;;;3.83;1.20;;;24.00;99.90;;;;;;5041920;28;20196;-86
2021/08/07 10:31:22;;;;;;;6.95;1.33;;;25.60;99.90;;;;;;5050408;28;20279;-82
2021/08/07 10:33:52;;;;;;;4.03;1.00;;;27.20;99.90;;;;;;5049896;28;20207;-83
2021/08/07 10:36:19;;;;;;;4.60;1.05;;;28.20;99.90;;;;;;5049464;28;20312;-83
2021/08/07 10:38:47;;;;;;;3.15;0.98;;;28.80;99.90;;;;;;5049593;28;20283;-83
2021/08/07 10:41:15;;;;;;;6.00;1.05;;;28.70;99.90;;;;;;5049466;28;20188;-83
2021/08/07 10:43:43;;;;;;;4.60;1.20;;;28.50;99.90;;;;;;5052871;28;20260;-83
2021/08/07 10:46:11;;;;;;;4.07;1.20;;;28.70;99.90;;;;;;5052786;28;20230;-85
2021/08/07 10:48:41;;;;;;;5.40;1.40;;;28.60;99.90;;;;;;5052990;28;20277;-83
2021/08/07 10:51:33;;;;;;;3.60;1.30;;;27.50;99.90;;;;;;5052819;28;20206;-83
2021/08/07 10:54:02;;;;;;;5.50;1.25;;;26.50;99.90;;;;;;5052870;28;20518;-81
2021/08/07 10:56:44;;;;;;;5.15;1.38;;;25.80;99.90;;;;;;5052400;28;20314;-84
2021/08/07 10:59:23;;;;;;;5.10;1.15;;;25.40;99.90;;;;;;5052675;28;20192;-83
2021/08/07 11:01:52;;;;;;;4.30;1.55;;;25.60;99.90;;;;;;5052816;28;20235;-85
2021/08/07 11:04:23;;;;;;;7.15;1.30;;;25.60;99.90;;;;;;5052846;28;20216;-85
2021/08/07 11:07:16;;;;;;;2.63;1.02;;;26.10;99.90;;;;;;5052912;28;20265;-84
2021/08/07 11:09:44;;;;;;;4.25;1.35;;;28.40;99.90;;;;;;5052520;28;20201;-87
2021/08/07 11:12:31;;;;;;;2.83;0.90;;;29.80;99.90;;;;;;5052567;28;20203;-83
2021/08/07 11:15:10;;;;;;;3.40;1.20;;;30.00;99.90;;;;;;5052187;28;20224;-83
2021/08/07 11:17:55;;;;;;;4.43;1.13;;;29.80;99.90;;;;;;5052463;28;20260;-81
2021/08/07 11:20:43;;;;;;;4.68;1.33;;;28.70;99.90;;;;;;5052477;28;20573;-83
2021/08/07 11:23:15;;;;;;;2.00;1.30;;;27.70;99.90;;;;;;5052769;28;20192;-82
2021/08/07 11:26:07;;;;;;;3.15;1.10;;;27.80;99.90;;;;;;5052062;28;20652;-85
2021/08/07 11:29:14;;;;;;;5.15;1.30;;;27.80;99.90;;;;;;5052330;28;20249;-88
2021/08/07 11:31:41;;;;;;;3.38;1.10;;;28.10;99.90;;;;;;5053080;28;20586;-83
2021/08/07 11:34:29;;;;;;;2.15;1.00;;;27.70;99.90;;;;;;5052358;28;20250;-83
2021/08/07 11:37:20;;;;;;;4.75;1.10;;;28.60;99.90;;;;;;5053458;28;20207;-83
2021/08/07 11:40:10;;;;;;;5.63;1.30;;;28.30;99.90;;;;;;5052448;28;20352;-85
2021/08/07 11:42:40;;;;;;;5.65;1.13;;;28.10;99.90;;;;;;5052266;28;20628;-83
2021/08/07 11:45:10;;;;;;;3.85;1.10;;;28.70;99.90;;;;;;5051635;28;20267;-83
2021/08/07 11:47:45;;;;;;;4.47;1.30;;;28.60;99.90;;;;;;5051665;28;20220;-83
2021/08/07 11:50:13;;;;;;;4.22;1.27;;;28.20;99.90;;;;;;5051703;28;20188;-84
2021/08/07 11:52:40;;;;;;;6.15;1.60;;;28.20;99.90;;;;;;5051387;28;20189;-83
2021/08/07 11:55:08;;;;;;;4.68;1.38;;;28.00;99.90;;;;;;5051796;28;20559;-83
2021/08/07 11:57:35;;;;;;;4.75;1.25;;;28.30;99.90;;;;;;5051671;28;20237;-83
2021/08/07 12:00:23;;;;;;;5.18;1.30;;;28.70;99.90;;;;;;5051480;28;20245;-83
2021/08/07 12:03:01;;;;;;;3.35;0.98;;;29.40;99.90;;;;;;5051928;28;20200;-83
2021/08/07 12:05:28;;;;;;;3.05;1.13;;;29.90;99.90;;;;;;5051771;28;20196;-83
2021/08/07 12:08:07;;;;;;;4.60;1.00;;;30.40;99.90;;;;;;5052873;28;20604;-83
2021/08/07 12:10:36;;;;;;;3.47;1.50;;;29.70;99.90;;;;;;5053259;28;20214;-85
2021/08/07 12:13:03;;;;;;;3.70;1.10;;;29.00;99.90;;;;;;5051552;28;20201;-82
2021/08/07 12:15:32;;;;;;;4.78;1.25;;;28.00;99.90;;;;;;5051382;28;20228;-82
2021/08/07 12:18:00;;;;;;;4.70;1.10;;;27.70;99.90;;;;;;5051593;28;20211;-84
2021/08/07 12:20:28;;;;;;;4.88;1.05;;;27.50;99.90;;;;;;5051308;28;20200;-83
2021/08/07 12:22:58;;;;;;;2.97;1.20;;;27.10;99.90;;;;;;5051312;28;20184;-84
2021/08/07 12:25:25;;;;;;;3.65;1.00;;;26.40;99.90;;;;;;5051326;28;20708;-83
2021/08/07 12:28:06;;;;;;;4.72;1.00;;;26.60;99.90;;;;;;5051152;28;20680;-83
2021/08/07 12:30:36;;;;;;;3.55;1.20;;;27.20;99.90;;;;;;5051606;28;20199;-85
2021/08/07 12:33:19;;;;;;;5.15;1.30;;;27.10;99.90;;;;;;5051118;28;20544;-84
2021/08/07 12:35:47;;;;;;;7.95;1.45;;;27.20;99.90;;;;;;5050710;28;20224;-83
2021/08/07 12:38:20;;;;;;;4.85;1.23;;;27.30;99.90;;;;;;5051302;28;20208;-83
2021/08/07 12:40:49;;;;;;;4.03;1.20;;;27.20;99.90;;;;;;5051236;28;20208;-82
2021/08/07 12:43:16;;;;;;;3.10;1.15;;;27.00;99.90;;;;;;5051426;28;20235;-84
2021/08/07 12:45:56;;;;;;;5.22;1.50;;;27.10;99.90;;;;;;5050895;28;20252;-84
2021/08/07 12:48:23;;;;;;;7.75;1.42;;;27.10;99.90;;;;;;5051093;28;20625;-81
2021/08/07 12:50:59;;;;;;;2.95;1.20;;;27.40;99.90;;;;;;5050949;28;20228;-82
2021/08/07 12:53:40;;;;;;;3.90;1.10;;;28.00;99.90;;;;;;5050997;28;20639;-85
2021/08/07 12:56:08;;;;;;;3.80;0.85;;;28.20;99.90;;;;;;5050621;28;20310;-84